Weather at Airdrie Aerodrome

Public forecast

Using degrees Celsius for public forecast. Weather courtesy of forecast.io.

Closest aviation weather report (METAR) to Airdrie Aerodrome

Closest report is Calgary International Airport, 9.6 nm (17.7 km) SSW.

2023/01/30 00:00 (retrieved 48 minutes ago)

CYYC 300000Z 19008KT 15SM BKN120 M17/M24 A3010 RMK AC6 SLP296

Closest aviation forecast (TAF) to Airdrie Aerodrome

Closest forecast is Castlegar/West Kootenay Regional Airport, 184.6 nm (341.8 km) SW.

2023/01/29 19:00 (retrieved 6 hours ago)

TAF CYCG 291840Z 2919/3001 18005KT P6SM FEW006 FEW020 SCT040 FM292100 18005KT P6SM FEW020 SCT040 RMK NXT FCST BY 301600Z